sensor_id;sensor_type;location;lat;lon;timestamp;pressure;altitude;pressure_sealevel;temperature;humidity
25947;BME280;13745;51.470;9.894;2022-07-23T00:00:37;99623.13;;;19.98;64.75
25947;BME280;13745;51.470;9.894;2022-07-23T00:03:23;99633.31;;;19.98;64.92
25947;BME280;13745;51.470;9.894;2022-07-23T00:06:09;99625.78;;;19.95;65.02
25947;BME280;13745;51.470;9.894;2022-07-23T00:08:55;99629.91;;;19.89;65.09
25947;BME280;13745;51.470;9.894;2022-07-23T00:11:41;99625.81;;;19.83;65.30
25947;BME280;13745;51.470;9.894;2022-07-23T00:14:27;99625.81;;;19.83;65.32
25947;BME280;13745;51.470;9.894;2022-07-23T00:17:14;99622.63;;;19.81;65.50
25947;BME280;13745;51.470;9.894;2022-07-23T00:20:00;99618.94;;;19.77;65.32
25947;BME280;13745;51.470;9.894;2022-07-23T00:22:46;99616.91;;;19.74;65.41
25947;BME280;13745;51.470;9.894;2022-07-23T00:25:32;99610.16;;;19.72;65.53
25947;BME280;13745;51.470;9.894;2022-07-23T00:28:18;99605.00;;;19.71;65.71
25947;BME280;13745;51.470;9.894;2022-07-23T00:31:04;99608.91;;;19.70;65.83
25947;BME280;13745;51.470;9.894;2022-07-23T00:33:51;99602.50;;;19.66;65.96
25947;BME280;13745;51.470;9.894;2022-07-23T00:36:40;99593.78;;;19.64;65.98
25947;BME280;13745;51.470;9.894;2022-07-23T00:39:26;99592.66;;;19.65;66.15
25947;BME280;13745;51.470;9.894;2022-07-23T00:42:12;99597.00;;;19.66;66.00
25947;BME280;13745;51.470;9.894;2022-07-23T00:44:58;99607.06;;;19.62;66.07
25947;BME280;13745;51.470;9.894;2022-07-23T00:47:44;99607.75;;;19.59;66.29
25947;BME280;13745;51.470;9.894;2022-07-23T00:50:32;99616.00;;;19.59;66.20
25947;BME280;13745;51.470;9.894;2022-07-23T00:53:19;99605.72;;;19.56;66.43
25947;BME280;13745;51.470;9.894;2022-07-23T00:56:05;99598.63;;;19.55;66.30
25947;BME280;13745;51.470;9.894;2022-07-23T00:58:52;99580.84;;;19.52;66.50
25947;BME280;13745;51.470;9.894;2022-07-23T01:01:38;99590.25;;;19.51;66.42
25947;BME280;13745;51.470;9.894;2022-07-23T01:04:23;99585.72;;;19.44;66.71
25947;BME280;13745;51.470;9.894;2022-07-23T01:07:11;99594.75;;;19.44;66.71
25947;BME280;13745;51.470;9.894;2022-07-23T01:09:57;99584.13;;;19.43;66.70
25947;BME280;13745;51.470;9.894;2022-07-23T01:12:43;99581.72;;;19.29;67.13
25947;BME280;13745;51.470;9.894;2022-07-23T01:15:29;99586.53;;;19.32;67.08
25947;BME280;13745;51.470;9.894;2022-07-23T01:18:15;99586.63;;;19.36;67.05
25947;BME280;13745;51.470;9.894;2022-07-23T01:21:01;99583.97;;;19.39;67.18
25947;BME280;13745;51.470;9.894;2022-07-23T01:23:48;99594.31;;;19.42;67.03
25947;BME280;13745;51.470;9.894;2022-07-23T01:26:34;99588.44;;;19.44;67.30
25947;BME280;13745;51.470;9.894;2022-07-23T01:29:20;99582.16;;;19.43;67.50
25947;BME280;13745;51.470;9.894;2022-07-23T01:32:07;99581.72;;;19.41;67.46
25947;BME280;13745;51.470;9.894;2022-07-23T01:34:53;99588.31;;;19.40;67.59
25947;BME280;13745;51.470;9.894;2022-07-23T01:37:39;99582.84;;;19.40;67.59
25947;BME280;13745;51.470;9.894;2022-07-23T01:40:27;99568.44;;;19.43;67.68
25947;BME280;13745;51.470;9.894;2022-07-23T01:43:14;99582.16;;;19.43;67.82
25947;BME280;13745;51.470;9.894;2022-07-23T01:45:59;99575.53;;;19.44;67.78
25947;BME280;13745;51.470;9.894;2022-07-23T01:48:51;99568.88;;;19.45;67.93
25947;BME280;13745;51.470;9.894;2022-07-23T01:51:56;99563.81;;;19.47;67.83
25947;BME280;13745;51.470;9.894;2022-07-23T01:54:49;99571.28;;;19.47;67.94
25947;BME280;13745;51.470;9.894;2022-07-23T01:57:37;99575.97;;;19.46;67.86
25947;BME280;13745;51.470;9.894;2022-07-23T02:00:24;99572.41;;;19.46;68.11
25947;BME280;13745;51.470;9.894;2022-07-23T02:03:11;99573.66;;;19.48;68.17
25947;BME280;13745;51.470;9.894;2022-07-23T02:05:57;99581.22;;;19.51;68.23
25947;BME280;13745;51.470;9.894;2022-07-23T02:08:43;99586.25;;;19.49;68.01
25947;BME280;13745;51.470;9.894;2022-07-23T02:11:29;99589.00;;;19.49;68.22
25947;BME280;13745;51.470;9.894;2022-07-23T02:14:16;99580.75;;;19.49;68.21
25947;BME280;13745;51.470;9.894;2022-07-23T02:17:02;99578.47;;;19.51;68.20
25947;BME280;13745;51.470;9.894;2022-07-23T02:19:48;99547.78;;;19.49;68.05
25947;BME280;13745;51.470;9.894;2022-07-23T02:22:34;99575.53;;;19.44;68.31
25947;BME280;13745;51.470;9.894;2022-07-23T02:25:20;99615.94;;;19.44;68.23
25947;BME280;13745;51.470;9.894;2022-07-23T02:28:06;99606.44;;;19.41;68.21
25947;BME280;13745;51.470;9.894;2022-07-23T02:30:54;99580.56;;;19.42;68.16
25947;BME280;13745;51.470;9.894;2022-07-23T02:33:39;99582.16;;;19.43;68.31
25947;BME280;13745;51.470;9.894;2022-07-23T02:36:25;99566.25;;;19.37;68.46
25947;BME280;13745;51.470;9.894;2022-07-23T02:39:12;99594.41;;;19.34;68.53
25947;BME280;13745;51.470;9.894;2022-07-23T02:41:58;99584.13;;;19.31;68.23
25947;BME280;13745;51.470;9.894;2022-07-23T02:44:44;99582.53;;;19.30;68.31
25947;BME280;13745;51.470;9.894;2022-07-23T02:47:31;99603.72;;;19.29;68.47
25947;BME280;13745;51.470;9.894;2022-07-23T02:50:19;99602.91;;;19.29;68.37
25947;BME280;13745;51.470;9.894;2022-07-23T02:53:05;99598.09;;;19.26;68.55
25947;BME280;13745;51.470;9.894;2022-07-23T02:55:51;99595.69;;;19.25;68.63
25947;BME280;13745;51.470;9.894;2022-07-23T02:58:37;99596.13;;;19.27;68.67
25947;BME280;13745;51.470;9.894;2022-07-23T03:01:23;99601.97;;;19.25;68.74
25947;BME280;13745;51.470;9.894;2022-07-23T03:04:10;99616.06;;;19.24;68.58
25947;BME280;13745;51.470;9.894;2022-07-23T03:06:56;99616.50;;;19.26;68.66
25947;BME280;13745;51.470;9.894;2022-07-23T03:09:43;99619.25;;;19.26;68.74
25947;BME280;13745;51.470;9.894;2022-07-23T03:12:29;99618.34;;;19.22;68.69
25947;BME280;13745;51.470;9.894;2022-07-23T03:15:15;99616.75;;;19.21;68.78
25947;BME280;13745;51.470;9.894;2022-07-23T03:18:02;99615.16;;;19.20;68.77
25947;BME280;13745;51.470;9.894;2022-07-23T03:20:49;99613.56;;;19.19;68.73
25947;BME280;13745;51.470;9.894;2022-07-23T03:23:36;99606.81;;;19.16;68.79
25947;BME280;13745;51.470;9.894;2022-07-23T03:26:22;99597.78;;;19.16;68.85
25947;BME280;13745;51.470;9.894;2022-07-23T03:29:10;99592.28;;;19.16;69.00
25947;BME280;13745;51.470;9.894;2022-07-23T03:31:56;99595.81;;;19.16;68.91
25947;BME280;13745;51.470;9.894;2022-07-23T03:34:42;99606.47;;;19.18;68.85
25947;BME280;13745;51.470;9.894;2022-07-23T03:37:29;99601.41;;;19.20;69.09
25947;BME280;13745;51.470;9.894;2022-07-23T03:40:17;99609.66;;;19.20;68.96
25947;BME280;13745;51.470;9.894;2022-07-23T03:43:03;99597.88;;;19.19;69.12
25947;BME280;13745;51.470;9.894;2022-07-23T03:45:49;99596.94;;;19.15;69.09
25947;BME280;13745;51.470;9.894;2022-07-23T03:48:35;99598.44;;;19.13;69.20
25947;BME280;13745;51.470;9.894;2022-07-23T03:51:21;99607.13;;;19.15;69.11
25947;BME280;13745;51.470;9.894;2022-07-23T03:54:08;99611.16;;;19.17;69.22
25947;BME280;13745;51.470;9.894;2022-07-23T03:56:54;99613.09;;;19.17;69.13
25947;BME280;13745;51.470;9.894;2022-07-23T03:59:40;99594.69;;;19.17;69.08
25947;BME280;13745;51.470;9.894;2022-07-23T04:02:26;99586.78;;;19.16;69.18
25947;BME280;13745;51.470;9.894;2022-07-23T04:05:12;99590.00;;;19.18;69.13
25947;BME280;13745;51.470;9.894;2022-07-23T04:08:01;99587.69;;;19.20;69.20
25947;BME280;13745;51.470;9.894;2022-07-23T04:10:49;99592.94;;;19.25;69.11
25947;BME280;13745;51.470;9.894;2022-07-23T04:13:35;99592.94;;;19.25;69.08
25947;BME280;13745;51.470;9.894;2022-07-23T04:16:22;99592.84;;;19.21;69.08
25947;BME280;13745;51.470;9.894;2022-07-23T04:19:08;99603.25;;;19.16;69.12
25947;BME280;13745;51.470;9.894;2022-07-23T04:22:05;99598.91;;;19.03;69.23
25947;BME280;13745;51.470;9.894;2022-07-23T04:24:53;99594.56;;;18.90;69.36
25947;BME280;13745;51.470;9.894;2022-07-23T04:27:40;99607.16;;;18.91;69.30
25947;BME280;13745;51.470;9.894;2022-07-23T04:30:26;99608.97;;;18.87;69.43
25947;BME280;13745;51.470;9.894;2022-07-23T04:33:12;99609.56;;;18.93;69.37
25947;BME280;13745;51.470;9.894;2022-07-23T04:35:59;99614.47;;;18.99;69.25
25947;BME280;13745;51.470;9.894;2022-07-23T04:38:46;99612.31;;;19.05;69.39
25947;BME280;13745;51.470;9.894;2022-07-23T04:41:32;99606.00;;;19.04;69.47
25947;BME280;13745;51.470;9.894;2022-07-23T04:44:20;99606.91;;;18.96;69.63
25947;BME280;13745;51.470;9.894;2022-07-23T04:47:06;99609.66;;;18.96;69.34
25947;BME280;13745;51.470;9.894;2022-07-23T04:49:52;99612.97;;;19.02;69.60
25947;BME280;13745;51.470;9.894;2022-07-23T04:52:38;99615.16;;;19.08;69.53
25947;BME280;13745;51.470;9.894;2022-07-23T04:55:24;99627.16;;;19.15;69.53
25947;BME280;13745;51.470;9.894;2022-07-23T04:58:10;99632.53;;;19.24;69.43
25947;BME280;13745;51.470;9.894;2022-07-23T05:00:58;99613.28;;;19.35;69.26
25947;BME280;13745;51.470;9.894;2022-07-23T05:03:44;99617.06;;;19.43;69.24
25947;BME280;13745;51.470;9.894;2022-07-23T05:06:32;99613.81;;;19.52;69.20
25947;BME280;13745;51.470;9.894;2022-07-23T05:09:18;99608.66;;;19.63;69.05
25947;BME280;13745;51.470;9.894;2022-07-23T05:12:04;99596.41;;;19.72;68.57
25947;BME280;13745;51.470;9.894;2022-07-23T05:14:51;99580.16;;;19.79;68.68
25947;BME280;13745;51.470;9.894;2022-07-23T05:17:40;99568.09;;;19.83;68.60
25947;BME280;13745;51.470;9.894;2022-07-23T05:20:31;99588.94;;;19.84;68.54
25947;BME280;13745;51.470;9.894;2022-07-23T05:23:16;99594.50;;;19.88;68.43
25947;BME280;13745;51.470;9.894;2022-07-23T05:26:02;99596.25;;;19.92;68.31
25947;BME280;13745;51.470;9.894;2022-07-23T05:28:50;99588.53;;;19.97;68.23
25947;BME280;13745;51.470;9.894;2022-07-23T05:31:37;99599.63;;;20.01;68.09
25947;BME280;13745;51.470;9.894;2022-07-23T05:34:25;99589.94;;;20.19;67.74
25947;BME280;13745;51.470;9.894;2022-07-23T05:37:11;99593.22;;;20.39;67.51
25947;BME280;13745;51.470;9.894;2022-07-23T05:40:00;99594.34;;;20.50;67.34
25947;BME280;13745;51.470;9.894;2022-07-23T05:42:46;99593.38;;;20.58;67.01
25947;BME280;13745;51.470;9.894;2022-07-23T05:45:32;99594.47;;;20.68;66.76
25947;BME280;13745;51.470;9.894;2022-07-23T05:48:18;99590.63;;;20.73;66.45
25947;BME280;13745;51.470;9.894;2022-07-23T05:51:20;99589.13;;;20.75;66.35
25947;BME280;13745;51.470;9.894;2022-07-23T05:54:06;99599.06;;;20.64;66.55
25947;BME280;13745;51.470;9.894;2022-07-23T05:56:55;99608.03;;;20.62;66.78
25947;BME280;13745;51.470;9.894;2022-07-23T05:59:42;99612.38;;;20.63;66.75
25947;BME280;13745;51.470;9.894;2022-07-23T06:02:28;99615.56;;;20.64;66.58
25947;BME280;13745;51.470;9.894;2022-07-23T06:05:14;99623.50;;;20.66;66.57
25947;BME280;13745;51.470;9.894;2022-07-23T06:08:03;99614.00;;;20.79;66.32
25947;BME280;13745;51.470;9.894;2022-07-23T06:10:49;99613.00;;;21.02;65.75
25947;BME280;13745;51.470;9.894;2022-07-23T06:13:35;99614.59;;;21.33;65.12
25947;BME280;13745;51.470;9.894;2022-07-23T06:16:21;99631.78;;;21.60;64.45
25947;BME280;13745;51.470;9.894;2022-07-23T06:19:07;99622.22;;;21.73;64.14
25947;BME280;13745;51.470;9.894;2022-07-23T06:21:53;99630.50;;;21.73;64.19
25947;BME280;13745;51.470;9.894;2022-07-23T06:24:40;99625.97;;;21.65;64.22
25947;BME280;13745;51.470;9.894;2022-07-23T06:27:26;99623.94;;;21.62;64.33
25947;BME280;13745;51.470;9.894;2022-07-23T06:30:12;99618.66;;;21.73;64.08
25947;BME280;13745;51.470;9.894;2022-07-23T06:33:00;99628.59;;;21.77;63.90
25947;BME280;13745;51.470;9.894;2022-07-23T06:35:47;99620.94;;;21.86;63.75
25947;BME280;13745;51.470;9.894;2022-07-23T06:38:33;99618.13;;;22.01;63.43
25947;BME280;13745;51.470;9.894;2022-07-23T06:41:21;99611.31;;;22.14;63.22
25947;BME280;13745;51.470;9.894;2022-07-23T06:44:07;99617.78;;;22.21;63.20
25947;BME280;13745;51.470;9.894;2022-07-23T06:46:53;99629.09;;;22.35;62.59
25947;BME280;13745;51.470;9.894;2022-07-23T06:49:39;99631.38;;;22.51;61.89
25947;BME280;13745;51.470;9.894;2022-07-23T06:52:26;99628.88;;;22.65;61.50
25947;BME280;13745;51.470;9.894;2022-07-23T06:55:12;99631.38;;;22.70;61.53
25947;BME280;13745;51.470;9.894;2022-07-23T06:57:59;99624.53;;;22.64;61.87
25947;BME280;13745;51.470;9.894;2022-07-23T07:00:45;99632.38;;;22.62;62.02
25947;BME280;13745;51.470;9.894;2022-07-23T07:03:31;99637.28;;;22.68;61.77
25947;BME280;13745;51.470;9.894;2022-07-23T07:06:18;99640.22;;;22.79;61.01
25947;BME280;13745;51.470;9.894;2022-07-23T07:09:04;99635.06;;;22.99;60.64
25947;BME280;13745;51.470;9.894;2022-07-23T07:11:50;99634.56;;;23.16;60.41
25947;BME280;13745;51.470;9.894;2022-07-23T07:14:37;99646.66;;;23.30;60.19
25947;BME280;13745;51.470;9.894;2022-07-23T07:17:23;99654.84;;;23.45;60.11
25947;BME280;13745;51.470;9.894;2022-07-23T07:20:09;99655.06;;;23.59;59.79
25947;BME280;13745;51.470;9.894;2022-07-23T07:22:55;99659.63;;;23.74;59.13
25947;BME280;13745;51.470;9.894;2022-07-23T07:25:41;99656.81;;;23.70;59.26
25947;BME280;13745;51.470;9.894;2022-07-23T07:28:27;99671.81;;;23.69;59.58
25947;BME280;13745;51.470;9.894;2022-07-23T07:31:14;99683.75;;;23.77;59.52
25947;BME280;13745;51.470;9.894;2022-07-23T07:34:00;99682.16;;;23.76;59.65
25947;BME280;13745;51.470;9.894;2022-07-23T07:36:46;99691.00;;;23.84;59.57
25947;BME280;13745;51.470;9.894;2022-07-23T07:39:32;99682.44;;;23.93;59.25
25947;BME280;13745;51.470;9.894;2022-07-23T07:42:18;99685.09;;;24.11;58.77
25947;BME280;13745;51.470;9.894;2022-07-23T07:45:04;99684.88;;;24.26;58.79
25947;BME280;13745;51.470;9.894;2022-07-23T07:47:52;99682.75;;;24.42;58.27
25947;BME280;13745;51.470;9.894;2022-07-23T07:50:38;99684.03;;;24.51;58.35
25947;BME280;13745;51.470;9.894;2022-07-23T07:53:24;99684.94;;;24.62;58.02
25947;BME280;13745;51.470;9.894;2022-07-23T07:56:10;99686.44;;;24.85;57.57
25947;BME280;13745;51.470;9.894;2022-07-23T07:58:55;99687.91;;;25.15;56.83
25947;BME280;13745;51.470;9.894;2022-07-23T08:01:41;99693.00;;;25.49;56.11
25947;BME280;13745;51.470;9.894;2022-07-23T08:04:29;99699.47;;;25.63;55.36
25947;BME280;13745;51.470;9.894;2022-07-23T08:07:15;99702.03;;;25.88;54.61
25947;BME280;13745;51.470;9.894;2022-07-23T08:10:00;99701.41;;;26.08;53.99
25947;BME280;13745;51.470;9.894;2022-07-23T08:12:48;99707.81;;;26.19;53.75
25947;BME280;13745;51.470;9.894;2022-07-23T08:15:34;99705.53;;;26.38;53.28
25947;BME280;13745;51.470;9.894;2022-07-23T08:18:20;99704.06;;;26.65;52.61
25947;BME280;13745;51.470;9.894;2022-07-23T08:21:08;99704.97;;;26.93;51.99
25947;BME280;13745;51.470;9.894;2022-07-23T08:23:53;99708.13;;;26.91;51.77
25947;BME280;13745;51.470;9.894;2022-07-23T08:26:39;99704.13;;;26.78;51.53
25947;BME280;13745;51.470;9.894;2022-07-23T08:29:25;99708.94;;;27.02;50.82
25947;BME280;13745;51.470;9.894;2022-07-23T08:32:11;99718.19;;;27.23;50.31
25947;BME280;13745;51.470;9.894;2022-07-23T08:34:57;99721.69;;;27.13;50.45
25947;BME280;13745;51.470;9.894;2022-07-23T08:37:44;99712.91;;;26.91;50.29
25947;BME280;13745;51.470;9.894;2022-07-23T08:40:32;99726.31;;;26.61;50.25
25947;BME280;13745;51.470;9.894;2022-07-23T08:43:19;99724.75;;;26.71;49.87
25947;BME280;13745;51.470;9.894;2022-07-23T08:46:05;99714.88;;;26.87;49.33
25947;BME280;13745;51.470;9.894;2022-07-23T08:48:51;99720.88;;;27.02;49.44
25947;BME280;13745;51.470;9.894;2022-07-23T08:51:38;99728.91;;;27.21;49.43
25947;BME280;13745;51.470;9.894;2022-07-23T08:54:26;99719.75;;;27.27;48.71
25947;BME280;13745;51.470;9.894;2022-07-23T08:57:11;99715.41;;;27.40;48.49
25947;BME280;13745;51.470;9.894;2022-07-23T08:59:57;99713.03;;;27.52;48.43
25947;BME280;13745;51.470;9.894;2022-07-23T09:02:44;99725.38;;;27.58;47.83
25947;BME280;13745;51.470;9.894;2022-07-23T09:05:30;99727.34;;;27.58;48.20
25947;BME280;13745;51.470;9.894;2022-07-23T09:08:18;99718.63;;;27.56;47.92
25947;BME280;13745;51.470;9.894;2022-07-23T09:11:06;99721.38;;;27.45;47.76
25947;BME280;13745;51.470;9.894;2022-07-23T09:13:54;99727.38;;;27.68;47.58
25947;BME280;13745;51.470;9.894;2022-07-23T09:16:43;99724.13;;;28.14;46.37
25947;BME280;13745;51.470;9.894;2022-07-23T09:19:29;99721.72;;;28.36;46.17
25947;BME280;13745;51.470;9.894;2022-07-23T09:22:20;99717.72;;;28.41;45.56
25947;BME280;13745;51.470;9.894;2022-07-23T09:25:09;99716.16;;;28.16;45.79
25947;BME280;13745;51.470;9.894;2022-07-23T09:27:58;99717.00;;;28.06;45.96
25947;BME280;13745;51.470;9.894;2022-07-23T09:30:50;99716.53;;;28.28;45.55
25947;BME280;13745;51.470;9.894;2022-07-23T09:33:36;99720.44;;;28.61;44.70
25947;BME280;13745;51.470;9.894;2022-07-23T09:36:27;99715.91;;;28.98;44.13
25947;BME280;13745;51.470;9.894;2022-07-23T09:39:16;99721.44;;;29.08;43.40
25947;BME280;13745;51.470;9.894;2022-07-23T09:42:12;99724.97;;;29.19;43.91
25947;BME280;13745;51.470;9.894;2022-07-23T09:45:00;99724.09;;;29.25;43.32
25947;BME280;13745;51.470;9.894;2022-07-23T09:47:46;99726.72;;;29.56;42.82
25947;BME280;13745;51.470;9.894;2022-07-23T09:50:32;99730.81;;;29.88;42.18
25947;BME280;13745;51.470;9.894;2022-07-23T09:53:24;99722.19;;;30.15;41.34
25947;BME280;13745;51.470;9.894;2022-07-23T09:56:11;99713.38;;;30.20;41.25
25947;BME280;13745;51.470;9.894;2022-07-23T09:58:59;99726.28;;;30.08;41.67
25947;BME280;13745;51.470;9.894;2022-07-23T10:01:52;99723.41;;;29.71;41.85
25947;BME280;13745;51.470;9.894;2022-07-23T10:04:39;99725.34;;;29.21;42.42
25947;BME280;13745;51.470;9.894;2022-07-23T10:07:26;99721.50;;;28.98;42.08
25947;BME280;13745;51.470;9.894;2022-07-23T10:10:50;99717.81;;;29.11;41.82
25947;BME280;13745;51.470;9.894;2022-07-23T10:13:49;99719.72;;;29.24;41.24
25947;BME280;13745;51.470;9.894;2022-07-23T10:16:47;99717.34;;;29.23;41.09
25947;BME280;13745;51.470;9.894;2022-07-23T10:19:35;99719.13;;;29.57;40.19
25947;BME280;13745;51.470;9.894;2022-07-23T10:22:23;99706.41;;;29.92;39.94
25947;BME280;13745;51.470;9.894;2022-07-23T10:25:14;99709.19;;;29.99;40.12
25947;BME280;13745;51.470;9.894;2022-07-23T10:28:15;99709.38;;;30.21;39.41
25947;BME280;13745;51.470;9.894;2022-07-23T10:31:13;99713.91;;;30.41;39.08
25947;BME280;13745;51.470;9.894;2022-07-23T10:34:07;99707.31;;;30.61;39.04
25947;BME280;13745;51.470;9.894;2022-07-23T10:37:04;99711.81;;;30.85;38.96
25947;BME280;13745;51.470;9.894;2022-07-23T10:40:11;99711.63;;;30.99;37.78
25947;BME280;13745;51.470;9.894;2022-07-23T10:42:59;99719.47;;;30.81;37.89
25947;BME280;13745;51.470;9.894;2022-07-23T10:45:45;99716.88;;;30.64;37.59
25947;BME280;13745;51.470;9.894;2022-07-23T10:48:31;99709.81;;;30.53;37.42
25947;BME280;13745;51.470;9.894;2022-07-23T10:51:18;99713.84;;;30.48;37.44
25947;BME280;13745;51.470;9.894;2022-07-23T10:54:20;99714.59;;;30.56;37.04
25947;BME280;13745;51.470;9.894;2022-07-23T10:57:07;99705.63;;;30.67;37.22
25947;BME280;13745;51.470;9.894;2022-07-23T11:00:20;99711.88;;;30.82;36.70
25947;BME280;13745;51.470;9.894;2022-07-23T11:03:30;99718.38;;;31.01;36.86
25947;BME280;13745;51.470;9.894;2022-07-23T11:06:17;99713.75;;;31.17;36.68
25947;BME280;13745;51.470;9.894;2022-07-23T11:09:24;99707.94;;;31.05;36.27
25947;BME280;13745;51.470;9.894;2022-07-23T11:12:35;99711.81;;;30.85;36.86
25947;BME280;13745;51.470;9.894;2022-07-23T11:15:21;99711.06;;;30.81;36.90
25947;BME280;13745;51.470;9.894;2022-07-23T11:18:07;99715.63;;;30.98;36.73
25947;BME280;13745;51.470;9.894;2022-07-23T11:20:53;99705.00;;;31.15;36.56
25947;BME280;13745;51.470;9.894;2022-07-23T11:24:00;99710.50;;;31.22;36.43
25947;BME280;13745;51.470;9.894;2022-07-23T11:27:02;99701.75;;;31.20;36.10
25947;BME280;13745;51.470;9.894;2022-07-23T11:29:48;99701.03;;;31.13;36.19
25947;BME280;13745;51.470;9.894;2022-07-23T11:32:38;99704.91;;;31.22;36.40
25947;BME280;13745;51.470;9.894;2022-07-23T11:35:26;99708.66;;;31.38;35.33
25947;BME280;13745;51.470;9.894;2022-07-23T11:38:15;99694.38;;;31.29;35.33
25947;BME280;13745;51.470;9.894;2022-07-23T11:41:01;99699.41;;;31.15;35.25
25947;BME280;13745;51.470;9.894;2022-07-23T11:43:48;99707.28;;;31.24;34.83
25947;BME280;13745;51.470;9.894;2022-07-23T11:46:34;99694.44;;;31.26;34.44
25947;BME280;13745;51.470;9.894;2022-07-23T11:49:20;99693.19;;;31.30;34.61
25947;BME280;13745;51.470;9.894;2022-07-23T11:52:07;99697.38;;;31.42;34.45
25947;BME280;13745;51.470;9.894;2022-07-23T11:54:56;99688.56;;;31.43;34.09
25947;BME280;13745;51.470;9.894;2022-07-23T11:57:43;99693.06;;;31.37;33.99
25947;BME280;13745;51.470;9.894;2022-07-23T12:00:31;99694.28;;;31.36;34.12
25947;BME280;13745;51.470;9.894;2022-07-23T12:03:17;99689.47;;;31.37;33.84
25947;BME280;13745;51.470;9.894;2022-07-23T12:06:04;99686.41;;;31.28;34.20
25947;BME280;13745;51.470;9.894;2022-07-23T12:08:49;99693.28;;;31.24;34.04
25947;BME280;13745;51.470;9.894;2022-07-23T12:11:35;99688.75;;;31.33;33.42
25947;BME280;13745;51.470;9.894;2022-07-23T12:14:21;99697.50;;;31.35;33.48
25947;BME280;13745;51.470;9.894;2022-07-23T12:17:09;99685.19;;;31.29;33.98
25947;BME280;13745;51.470;9.894;2022-07-23T12:19:56;99684.03;;;31.27;33.99
25947;BME280;13745;51.470;9.894;2022-07-23T12:22:44;99684.88;;;31.24;33.51
25947;BME280;13745;51.470;9.894;2022-07-23T12:25:34;99688.75;;;31.33;33.67
25947;BME280;13745;51.470;9.894;2022-07-23T12:28:22;99683.56;;;31.06;33.92
25947;BME280;13745;51.470;9.894;2022-07-23T12:31:12;99691.44;;;30.84;34.03
25947;BME280;13745;51.470;9.894;2022-07-23T12:33:59;99686.13;;;30.90;33.57
25947;BME280;13745;51.470;9.894;2022-07-23T12:36:45;99684.34;;;31.06;33.48
25947;BME280;13745;51.470;9.894;2022-07-23T12:39:32;99683.72;;;30.92;33.60
25947;BME280;13745;51.470;9.894;2022-07-23T12:42:18;99683.34;;;30.61;33.79
25947;BME280;13745;51.470;9.894;2022-07-23T12:45:09;99685.13;;;30.77;33.80
25947;BME280;13745;51.470;9.894;2022-07-23T12:48:01;99680.88;;;30.66;33.83
25947;BME280;13745;51.470;9.894;2022-07-23T12:50:52;99686.25;;;30.83;33.99
25947;BME280;13745;51.470;9.894;2022-07-23T12:53:41;99685.16;;;31.03;33.84
25947;BME280;13745;51.470;9.894;2022-07-23T12:56:29;99684.84;;;30.98;33.31
25947;BME280;13745;51.470;9.894;2022-07-23T12:59:15;99685.22;;;31.00;33.60
25947;BME280;13745;51.470;9.894;2022-07-23T13:02:01;99676.34;;;31.05;33.65
25947;BME280;13745;51.470;9.894;2022-07-23T13:04:47;99685.94;;;31.07;33.31
25947;BME280;13745;51.470;9.894;2022-07-23T13:07:34;99676.31;;;31.08;33.32
25947;BME280;13745;51.470;9.894;2022-07-23T13:10:20;99683.81;;;30.85;33.57
25947;BME280;13745;51.470;9.894;2022-07-23T13:13:08;99675.78;;;30.87;33.39
25947;BME280;13745;51.470;9.894;2022-07-23T13:15:54;99691.72;;;30.90;33.38
25947;BME280;13745;51.470;9.894;2022-07-23T13:18:40;99693.22;;;30.98;33.37
25947;BME280;13745;51.470;9.894;2022-07-23T13:21:27;99685.16;;;31.03;33.33
25947;BME280;13745;51.470;9.894;2022-07-23T13:24:14;99684.19;;;31.16;33.31
25947;BME280;13745;51.470;9.894;2022-07-23T13:27:00;99689.19;;;31.28;33.08
25947;BME280;13745;51.470;9.894;2022-07-23T13:29:48;99687.59;;;31.30;32.60
25947;BME280;13745;51.470;9.894;2022-07-23T13:32:33;99692.84;;;31.25;32.71
25947;BME280;13745;51.470;9.894;2022-07-23T13:35:19;99686.16;;;31.19;32.41
25947;BME280;13745;51.470;9.894;2022-07-23T13:38:06;99683.34;;;31.19;32.35
25947;BME280;13745;51.470;9.894;2022-07-23T13:40:54;99683.34;;;31.19;32.40
25947;BME280;13745;51.470;9.894;2022-07-23T13:43:40;99690.41;;;31.27;32.39
25947;BME280;13745;51.470;9.894;2022-07-23T13:46:26;99692.78;;;31.28;32.20
25947;BME280;13745;51.470;9.894;2022-07-23T13:49:12;99686.16;;;31.19;32.20
25947;BME280;13745;51.470;9.894;2022-07-23T13:51:58;99685.94;;;31.04;31.97
25947;BME280;13745;51.470;9.894;2022-07-23T13:54:44;99683.16;;;30.74;32.01
25947;BME280;13745;51.470;9.894;2022-07-23T13:57:31;99678.63;;;30.54;32.21
25947;BME280;13745;51.470;9.894;2022-07-23T14:00:17;99689.16;;;30.40;32.22
25947;BME280;13745;51.470;9.894;2022-07-23T14:03:03;99680.34;;;30.45;32.34
25947;BME280;13745;51.470;9.894;2022-07-23T14:05:49;99670.25;;;30.51;32.52
25947;BME280;13745;51.470;9.894;2022-07-23T14:08:35;99676.28;;;30.49;32.71
25947;BME280;13745;51.470;9.894;2022-07-23T14:11:21;99683.94;;;30.42;32.89
25947;BME280;13745;51.470;9.894;2022-07-23T14:14:08;99678.75;;;30.44;32.79
25947;BME280;13745;51.470;9.894;2022-07-23T14:16:55;99676.50;;;30.32;32.69
25947;BME280;13745;51.470;9.894;2022-07-23T14:19:40;99676.25;;;30.16;32.41
25947;BME280;13745;51.470;9.894;2022-07-23T14:22:26;99677.56;;;30.09;32.61
25947;BME280;13745;51.470;9.894;2022-07-23T14:25:12;99676.78;;;30.05;32.73
25947;BME280;13745;51.470;9.894;2022-07-23T14:27:58;99680.41;;;30.02;32.95
25947;BME280;13745;51.470;9.894;2022-07-23T14:30:45;99668.41;;;30.05;33.39
25947;BME280;13745;51.470;9.894;2022-07-23T14:33:31;99687.09;;;30.11;33.52
25947;BME280;13745;51.470;9.894;2022-07-23T14:36:17;99681.47;;;30.15;33.43
25947;BME280;13745;51.470;9.894;2022-07-23T14:39:03;99674.66;;;30.15;33.57
25947;BME280;13745;51.470;9.894;2022-07-23T14:41:49;99679.06;;;30.16;33.49
25947;BME280;13745;51.470;9.894;2022-07-23T14:44:35;99680.69;;;30.14;33.51
25947;BME280;13745;51.470;9.894;2022-07-23T14:47:23;99686.75;;;30.09;33.40